Time,TemperatureF,DewpointF,PressureIn,WindDirection,WindDirectionDegrees,WindSpeedMPH,WindSpeedGustMPH,Humidity,HourlyPrecipIn,Conditions,Clouds,dailyrainin,SoftwareType,DateUTC
2013-02-24 00:13:00,41.8,31.0,29.94,North,5,0.0,-999.0,65,-99.99,,,0.00,weatherlink.com 1.10,2013-02-24 06:13:00,
2013-02-24 00:28:00,41.8,31.0,29.95,North,5,0.0,-999.0,65,-99.99,,,0.00,weatherlink.com 1.10,2013-02-24 06:28:00,
2013-02-24 00:43:00,40.0,29.0,29.95,North,360,0.0,-999.0,65,-99.99,,,0.00,weatherlink.com 1.10,2013-02-24 06:43:00,
2013-02-24 00:58:00,37.8,28.0,29.94,North,5,0.0,-999.0,68,-99.99,,,0.00,weatherlink.com 1.10,2013-02-24 06:58:00,
2013-02-24 01:13:00,37.2,28.0,29.94,North,5,0.0,-999.0,70,-99.99,,,0.00,weatherlink.com 1.10,2013-02-24 07:13:00,
2013-02-24 01:28:00,37.0,28.0,29.94,North,5,0.0,-999.0,71,-99.99,,,0.00,weatherlink.com 1.10,2013-02-24 07:28:00,
2013-02-24 01:43:00,38.7,30.0,29.94,North,5,0.0,-999.0,71,-99.99,,,0.00,weatherlink.com 1.10,2013-02-24 07:43:00,
2013-02-24 01:58:00,39.1,30.0,29.94,North,360,0.0,-999.0,70,-99.99,,,0.00,weatherlink.com 1.10,2013-02-24 07:58:00,
2013-02-24 02:13:00,40.0,31.0,29.93,North,360,0.0,-999.0,70,-99.99,,,0.00,weatherlink.com 1.10,2013-02-24 08:13:00,
2013-02-24 02:28:00,39.5,30.0,29.93,North,360,0.0,-999.0,70,-99.99,,,0.00,weatherlink.com 1.10,2013-02-24 08:28:00,
2013-02-24 02:43:00,37.9,29.0,29.92,North,5,0.0,-999.0,71,-99.99,,,0.00,weatherlink.com 1.10,2013-02-24 08:43:00,
2013-02-24 02:58:00,37.9,30.0,29.92,North,5,0.0,-999.0,72,-99.99,,,0.00,weatherlink.com 1.10,2013-02-24 08:58:00,
2013-02-24 03:13:00,38.9,31.0,29.91,North,360,0.0,-999.0,73,-99.99,,,0.00,weatherlink.com 1.10,2013-02-24 09:13:00,
2013-02-24 03:28:00,39.3,31.0,29.90,North,5,0.0,-999.0,72,-99.99,,,0.00,weatherlink.com 1.10,2013-02-24 09:28:00,
2013-02-24 03:43:00,38.6,31.0,29.89,North,360,0.0,-999.0,73,-99.99,,,0.00,weatherlink.com 1.10,2013-02-24 09:43:00,
2013-02-24 03:58:00,39.1,32.0,29.88,North,5,0.0,-999.0,75,-99.99,,,0.00,weatherlink.com 1.10,2013-02-24 09:58:00,
2013-02-24 04:13:00,40.4,33.0,29.88,East,82,0.0,-999.0,75,-99.99,,,0.00,weatherlink.com 1.10,2013-02-24 10:13:00,
2013-02-24 04:28:00,40.7,33.0,29.88,ESE,102,0.0,-999.0,75,-99.99,,,0.00,weatherlink.com 1.10,2013-02-24 10:28:00,
2013-02-24 04:43:00,41.0,34.0,29.88,ESE,103,0.0,-999.0,76,-99.99,,,0.00,weatherlink.com 1.10,2013-02-24 10:43:00,
2013-02-24 04:58:00,41.3,34.0,29.89,ESE,103,0.0,-999.0,76,-99.99,,,0.00,weatherlink.com 1.10,2013-02-24 10:58:00,
2013-02-24 05:13:00,41.2,34.0,29.90,ESE,103,0.0,-999.0,76,-99.99,,,0.00,weatherlink.com 1.10,2013-02-24 11:13:00,
2013-02-24 05:28:00,40.9,34.0,29.91,ESE,102,0.0,-999.0,76,-99.99,,,0.00,weatherlink.com 1.10,2013-02-24 11:28:00,
2013-02-24 05:43:00,40.1,33.0,29.91,ESE,102,0.0,-999.0,77,-99.99,,,0.00,weatherlink.com 1.10,2013-02-24 11:43:00,
2013-02-24 05:58:00,40.1,33.0,29.91,ESE,103,0.0,-999.0,77,-99.99,,,0.00,weatherlink.com 1.10,2013-02-24 11:58:00,
2013-02-24 06:13:00,40.4,34.0,29.92,ESE,102,0.0,-999.0,78,-99.99,,,0.00,weatherlink.com 1.10,2013-02-24 12:13:00,
2013-02-24 06:28:00,40.0,34.0,29.92,ESE,103,0.0,-999.0,78,-99.99,,,0.00,weatherlink.com 1.10,2013-02-24 12:28:00,
2013-02-24 06:43:00,39.4,34.0,29.92,ESE,103,0.0,-999.0,80,-99.99,,,0.00,weatherlink.com 1.10,2013-02-24 12:43:00,
2013-02-24 06:58:00,40.2,35.0,29.92,ESE,118,0.0,-999.0,80,-99.99,,,0.00,weatherlink.com 1.10,2013-02-24 12:58:00,
2013-02-24 07:13:00,40.3,35.0,29.92,ESE,119,0.0,-999.0,80,-99.99,,,0.00,weatherlink.com 1.10,2013-02-24 13:13:00,
2013-02-24 07:28:00,41.3,36.0,29.93,ESE,118,0.0,-999.0,81,-99.99,,,0.00,weatherlink.com 1.10,2013-02-24 13:28:00,
2013-02-24 07:43:00,43.1,37.0,29.93,ESE,118,1.0,-999.0,80,-99.99,,,0.00,weatherlink.com 1.10,2013-02-24 13:43:00,
2013-02-24 07:58:00,44.5,39.0,29.93,East,98,3.0,-999.0,80,-99.99,,,0.00,weatherlink.com 1.10,2013-02-24 13:58:00,
2013-02-24 08:13:00,45.4,40.0,29.94,East,98,2.0,-999.0,80,-99.99,,,0.00,weatherlink.com 1.10,2013-02-24 14:13:00,
2013-02-24 08:28:00,46.4,40.0,29.94,ESE,102,6.0,-999.0,79,-99.99,,,0.00,weatherlink.com 1.10,2013-02-24 14:28:00,
2013-02-24 08:44:00,48.3,42.0,29.94,SE,124,4.0,-999.0,78,-99.99,,,0.00,weatherlink.com 1.10,2013-02-24 14:44:00,
2013-02-24 08:59:00,50.0,43.0,29.95,SE,137,5.0,-999.0,76,-99.99,,,0.00,weatherlink.com 1.10,2013-02-24 14:59:00,
2013-02-24 09:14:00,51.1,43.0,29.95,SE,136,5.0,-999.0,74,-99.99,,,0.00,weatherlink.com 1.10,2013-02-24 15:14:00,
2013-02-24 09:29:00,52.8,44.0,29.95,East,96,7.0,-999.0,71,-99.99,,,0.00,weatherlink.com 1.10,2013-02-24 15:29:00,
2013-02-24 09:44:00,53.9,44.0,29.94,East,99,6.0,-999.0,70,-99.99,,,0.00,weatherlink.com 1.10,2013-02-24 15:44:00,
2013-02-24 09:59:00,55.3,45.0,29.93,ESE,114,6.0,-999.0,68,-99.99,,,0.00,weatherlink.com 1.10,2013-02-24 15:59:00,
2013-02-24 10:14:00,57.0,46.0,29.92,East,95,5.0,-999.0,66,-99.99,,,0.00,weatherlink.com 1.10,2013-02-24 16:14:00,
2013-02-24 10:29:00,58.4,46.0,29.92,SE,126,7.0,-999.0,63,-99.99,,,0.00,weatherlink.com 1.10,2013-02-24 16:29:00,
2013-02-24 10:44:00,59.3,47.0,29.91,ESE,115,4.0,-999.0,63,-99.99,,,0.00,weatherlink.com 1.10,2013-02-24 16:44:00,
2013-02-24 10:59:00,60.3,47.0,29.91,SE,130,11.0,-999.0,62,-99.99,,,0.00,weatherlink.com 1.10,2013-02-24 16:59:00,
2013-02-24 11:14:00,61.5,47.0,29.91,SE,142,9.0,-999.0,60,-99.99,,,0.00,weatherlink.com 1.10,2013-02-24 17:14:00,
2013-02-24 11:29:00,61.9,47.0,29.90,ESE,119,4.0,-999.0,59,-99.99,,,0.00,weatherlink.com 1.10,2013-02-24 17:29:00,
2013-02-24 11:44:00,63.0,48.0,29.89,ESE,109,5.0,-999.0,58,-99.99,,,0.00,weatherlink.com 1.10,2013-02-24 17:44:00,
2013-02-24 11:59:00,63.1,47.0,29.88,ESE,115,6.0,-999.0,57,-99.99,,,0.00,weatherlink.com 1.10,2013-02-24 17:59:00,
2013-02-24 12:14:00,63.5,48.0,29.87,SE,130,4.0,-999.0,57,-99.99,,,0.00,weatherlink.com 1.10,2013-02-24 18:14:00,
2013-02-24 12:29:00,63.6,47.0,29.86,East,80,5.0,-999.0,56,-99.99,,,0.00,weatherlink.com 1.10,2013-02-24 18:29:00,
2013-02-24 12:44:00,64.2,48.0,29.85,ESE,104,6.0,-999.0,55,-99.99,,,0.00,weatherlink.com 1.10,2013-02-24 18:44:00,
2013-02-24 12:59:00,64.5,47.0,29.84,East,87,11.0,-999.0,53,-99.99,,,0.00,weatherlink.com 1.10,2013-02-24 18:59:00,
2013-02-24 13:14:00,64.7,47.0,29.83,East,99,6.0,-999.0,54,-99.99,,,0.00,weatherlink.com 1.10,2013-02-24 19:14:00,
2013-02-24 13:29:00,66.1,48.0,29.81,East,83,13.0,-999.0,53,-99.99,,,0.00,weatherlink.com 1.10,2013-02-24 19:29:00,
2013-02-24 13:44:00,66.7,48.0,29.80,East,99,9.0,-999.0,51,-99.99,,,0.00,weatherlink.com 1.10,2013-02-24 19:44:00,
2013-02-24 14:00:00,67.3,48.0,29.80,SE,127,7.0,-999.0,50,-99.99,,,0.00,weatherlink.com 1.10,2013-02-24 20:00:00,
2013-02-24 14:15:00,67.9,47.0,29.79,East,91,7.0,-999.0,48,-99.99,,,0.00,weatherlink.com 1.10,2013-02-24 20:15:00,
2013-02-24 14:30:00,68.1,46.0,29.78,ESE,109,9.0,-999.0,45,-99.99,,,0.00,weatherlink.com 1.10,2013-02-24 20:30:00,
2013-02-24 14:46:00,68.5,46.0,29.78,ESE,113,3.0,-999.0,45,-99.99,,,0.00,weatherlink.com 1.10,2013-02-24 20:46:00,
2013-02-24 15:00:00,68.5,45.0,29.77,ENE,78,3.0,-999.0,43,-99.99,,,0.00,weatherlink.com 1.10,2013-02-24 21:00:00,
2013-02-24 15:15:00,68.8,45.0,29.75,ESE,119,4.0,-999.0,43,-99.99,,,0.00,weatherlink.com 1.10,2013-02-24 21:15:00,
2013-02-24 15:30:00,68.5,45.0,29.75,East,90,6.0,-999.0,43,-99.99,,,0.00,weatherlink.com 1.10,2013-02-24 21:30:00,
2013-02-24 15:45:00,68.5,45.0,29.74,SSE,149,5.0,-999.0,43,-99.99,,,0.00,weatherlink.com 1.10,2013-02-24 21:45:00,
2013-02-24 16:00:00,67.9,44.0,29.74,ESE,102,3.0,-999.0,43,-99.99,,,0.00,weatherlink.com 1.10,2013-02-24 22:00:00,
2013-02-24 16:15:00,67.8,45.0,29.74,ESE,119,9.0,-999.0,44,-99.99,,,0.00,weatherlink.com 1.10,2013-02-24 22:15:00,
2013-02-24 16:30:00,68.8,46.0,29.73,ESE,104,4.0,-999.0,44,-99.99,,,0.00,weatherlink.com 1.10,2013-02-24 22:30:00,
2013-02-24 16:45:00,68.5,47.0,29.73,ESE,120,15.0,-999.0,46,-99.99,,,0.00,weatherlink.com 1.10,2013-02-24 22:45:00,
2013-02-24 17:00:00,68.2,46.0,29.73,ESE,102,10.0,-999.0,45,-99.99,,,0.00,weatherlink.com 1.10,2013-02-24 23:00:00,
2013-02-24 17:15:00,67.7,46.0,29.72,East,90,6.0,-999.0,46,-99.99,,,0.00,weatherlink.com 1.10,2013-02-24 23:15:00,
2013-02-24 17:30:00,66.9,46.0,29.72,ESE,116,7.0,-999.0,47,-99.99,,,0.00,weatherlink.com 1.10,2013-02-24 23:30:00,
2013-02-24 17:45:00,66.3,46.0,29.72,ESE,118,9.0,-999.0,48,-99.99,,,0.00,weatherlink.com 1.10,2013-02-24 23:45:00,
2013-02-24 18:00:00,65.8,46.0,29.72,ESE,106,6.0,-999.0,49,-99.99,,,0.00,weatherlink.com 1.10,2013-02-25 00:00:00,
2013-02-24 18:15:00,65.6,46.0,29.72,East,96,3.0,-999.0,50,-99.99,,,0.00,weatherlink.com 1.10,2013-02-25 00:15:00,
2013-02-24 18:30:00,65.0,46.0,29.72,ESE,102,5.0,-999.0,51,-99.99,,,0.00,weatherlink.com 1.10,2013-02-25 00:30:00,
2013-02-24 18:45:00,64.3,46.0,29.72,ESE,103,4.0,-999.0,52,-99.99,,,0.00,weatherlink.com 1.10,2013-02-25 00:45:00,
2013-02-24 19:00:00,64.3,47.0,29.72,ESE,115,4.0,-999.0,53,-99.99,,,0.00,weatherlink.com 1.10,2013-02-25 01:00:00,
2013-02-24 19:15:00,63.8,47.0,29.72,ESE,113,4.0,-999.0,54,-99.99,,,0.00,weatherlink.com 1.10,2013-02-25 01:15:00,
2013-02-24 19:30:00,62.9,46.0,29.73,ESE,112,0.0,-999.0,55,-99.99,,,0.00,weatherlink.com 1.10,2013-02-25 01:30:00,
2013-02-24 19:45:00,62.6,47.0,29.73,ESE,109,5.0,-999.0,57,-99.99,,,0.00,weatherlink.com 1.10,2013-02-25 01:45:00,
2013-02-24 20:00:00,62.5,47.0,29.73,ESE,121,0.0,-999.0,57,-99.99,,,0.00,weatherlink.com 1.10,2013-02-25 02:00:00,
2013-02-24 20:15:00,62.3,47.0,29.73,ESE,117,0.0,-999.0,58,-99.99,,,0.00,weatherlink.com 1.10,2013-02-25 02:15:00,
2013-02-24 20:30:00,62.3,48.0,29.73,ESE,119,4.0,-999.0,59,-99.99,,,0.00,weatherlink.com 1.10,2013-02-25 02:30:00,
2013-02-24 20:45:00,62.2,47.0,29.72,ESE,112,3.0,-999.0,59,-99.99,,,0.00,weatherlink.com 1.10,2013-02-25 02:45:00,
2013-02-24 21:00:00,61.9,47.0,29.73,ESE,111,7.0,-999.0,59,-99.99,,,0.00,weatherlink.com 1.10,2013-02-25 03:00:00,
2013-02-24 21:15:00,61.3,47.0,29.71,SE,127,2.0,-999.0,60,-99.99,,,0.00,weatherlink.com 1.10,2013-02-25 03:15:00,
2013-02-24 21:30:00,60.9,47.0,29.71,ESE,121,5.0,-999.0,61,-99.99,,,0.00,weatherlink.com 1.10,2013-02-25 03:30:00,
2013-02-24 21:45:00,60.7,47.0,29.70,ESE,119,6.0,-999.0,61,-99.99,,,0.00,weatherlink.com 1.10,2013-02-25 03:45:00,
2013-02-24 22:00:00,60.4,47.0,29.70,ESE,117,4.0,-999.0,61,-99.99,,,0.00,weatherlink.com 1.10,2013-02-25 04:00:00,
2013-02-24 22:15:00,60.0,47.0,29.70,ESE,111,0.0,-999.0,62,-99.99,,,0.00,weatherlink.com 1.10,2013-02-25 04:15:00,
2013-02-24 22:30:00,60.1,47.0,29.70,ESE,111,0.0,-999.0,62,-99.99,,,0.00,weatherlink.com 1.10,2013-02-25 04:30:00,
2013-02-24 22:45:00,60.1,47.0,29.69,ESE,110,4.0,-999.0,63,-99.99,,,0.00,weatherlink.com 1.10,2013-02-25 04:45:00,
2013-02-24 23:00:00,60.1,47.0,29.68,SE,128,5.0,-999.0,63,-99.99,,,0.00,weatherlink.com 1.10,2013-02-25 05:00:00,
2013-02-24 23:15:00,59.5,47.0,29.67,East,90,0.0,-999.0,64,-99.99,,,0.00,weatherlink.com 1.10,2013-02-25 05:15:00,
2013-02-24 23:30:00,59.5,47.0,29.67,East,94,0.0,-999.0,64,-99.99,,,0.00,weatherlink.com 1.10,2013-02-25 05:30:00,
2013-02-24 23:45:00,59.5,47.0,29.67,ESE,113,0.0,-999.0,64,-99.99,,,0.00,weatherlink.com 1.10,2013-02-25 05:45:00,